Time;durP1;ratioP1;P1;durP2;ratioP2;P2;SDS_P1;SDS_P2;PMS_P1;PMS_P2;Temp;Humidity;BMP_temperature;BMP_pressure;BME280_temperature;BME280_humidity;BME280_pressure;Samples;Min_cycle;Max_cycle;Signal;HPM_P1;HPM_P2
2023/07/19 00:00:21;;;;;;;;;;;25.70;45.90;;;;;;3056318;19;5183;-78
2023/07/19 00:01:22;;;;;;;;;;;25.70;46.00;;;;;;3054614;19;5225;-79
2023/07/19 00:02:23;;;;;;;;;;;25.60;46.00;;;;;;3055401;19;5017;-79
2023/07/19 00:03:25;;;;;;;;;;;25.60;45.70;;;;;;3055714;19;4920;-79
2023/07/19 00:04:25;;;;;;;;;;;25.60;46.00;;;;;;3056368;19;5153;-82
2023/07/19 00:05:26;;;;;;;;;;;25.60;46.10;;;;;;3055494;19;5121;-80
2023/07/19 00:06:28;;;;;;;;;;;25.70;46.20;;;;;;3054137;19;4486;-82
2023/07/19 00:07:29;;;;;;;;;;;25.60;46.00;;;;;;3056289;19;5201;-80
2023/07/19 00:08:32;;;;;;;;;;;25.70;46.10;;;;;;3055315;19;4988;-82
2023/07/19 00:09:33;;;;;;;;;;;25.60;46.10;;;;;;3055852;19;5133;-78
2023/07/19 00:10:33;;;;;;;;;;;25.90;46.30;;;;;;3056339;19;5171;-81
2023/07/19 00:11:34;;;;;;;;;;;25.60;45.80;;;;;;3056323;19;5035;-79
2023/07/19 00:12:35;;;;;;;;;;;25.60;46.00;;;;;;3056056;19;5139;-79
2023/07/19 00:13:35;;;;;;;;;;;25.60;45.90;;;;;;3056759;19;4712;-79
2023/07/19 00:14:36;;;;;;;;;;;25.60;46.00;;;;;;3056385;19;5028;-78
2023/07/19 00:15:37;;;;;;;;;;;25.60;46.10;;;;;;3056668;19;5066;-81
2023/07/19 00:16:38;;;;;;;;;;;25.60;46.10;;;;;;3055947;19;5220;-78
2023/07/19 00:17:38;;;;;;;;;;;25.60;45.80;;;;;;3057771;19;5188;-78
2023/07/19 00:18:39;;;;;;;;;;;25.60;45.90;;;;;;3056976;19;4569;-77
2023/07/19 00:19:40;;;;;;;;;;;25.60;46.10;;;;;;3055790;19;4545;-80
2023/07/19 00:20:40;;;;;;;;;;;25.60;46.00;;;;;;3057049;19;4921;-80
2023/07/19 00:21:41;;;;;;;;;;;25.20;45.80;;;;;;3054585;19;4650;-79
2023/07/19 00:22:41;;;;;;;;;;;25.60;46.10;;;;;;3055418;19;5151;-82
2023/07/19 00:23:42;;;;;;;;;;;25.60;46.20;;;;;;3053948;19;4563;-82
2023/07/19 00:24:43;;;;;;;;;;;25.60;46.00;;;;;;3054414;19;5134;-81
2023/07/19 00:25:45;;;;;;;;;;;25.60;46.20;;;;;;3056501;19;4673;-82
2023/07/19 00:26:48;;;;;;;;;;;25.60;46.30;;;;;;3056126;19;5130;-81
2023/07/19 00:27:49;;;;;;;;;;;25.60;46.20;;;;;;3055201;19;5204;-80
2023/07/19 00:28:49;;;;;;;;;;;25.60;46.20;;;;;;3055530;19;4726;-81
2023/07/19 00:29:50;;;;;;;;;;;25.50;46.10;;;;;;3054993;19;4579;-81
2023/07/19 00:31:01;;;;;;;;;;;25.60;46.00;;;;;;3055594;19;5213;-79
2023/07/19 00:32:02;;;;;;;;;;;25.60;46.20;;;;;;3052377;19;5071;-78
2023/07/19 00:33:03;;;;;;;;;;;25.50;46.00;;;;;;3053788;19;4682;-79
2023/07/19 00:34:03;;;;;;;;;;;25.60;46.20;;;;;;3054640;19;5013;-79
2023/07/19 00:35:04;;;;;;;;;;;25.50;46.10;;;;;;3052658;19;4591;-80
2023/07/19 00:36:05;;;;;;;;;;;25.60;46.10;;;;;;3056915;19;5078;-79
2023/07/19 00:37:06;;;;;;;;;;;25.60;46.20;;;;;;3056794;19;5001;-78
2023/07/19 00:38:06;;;;;;;;;;;25.60;46.20;;;;;;3055564;19;4459;-81
2023/07/19 00:39:07;;;;;;;;;;;25.50;46.10;;;;;;3055911;19;5245;-82
2023/07/19 00:40:08;;;;;;;;;;;25.50;46.10;;;;;;3053442;19;5098;-79
2023/07/19 00:41:09;;;;;;;;;;;25.50;46.30;;;;;;3052845;19;5143;-79
2023/07/19 00:42:10;;;;;;;;;;;25.50;46.30;;;;;;3053170;19;5219;-80
2023/07/19 00:43:11;;;;;;;;;;;25.40;46.20;;;;;;3053915;19;4477;-78
2023/07/19 00:44:11;;;;;;;;;;;25.50;46.30;;;;;;3054296;19;4620;-79
2023/07/19 00:45:12;;;;;;;;;;;25.50;46.30;;;;;;3053902;19;4542;-79
2023/07/19 00:46:13;;;;;;;;;;;25.50;46.30;;;;;;3053511;19;5028;-79
2023/07/19 00:47:14;;;;;;;;;;;25.50;46.20;;;;;;3055083;19;5116;-82
2023/07/19 00:48:16;;;;;;;;;;;25.50;46.30;;;;;;3052876;19;5144;-79
2023/07/19 00:49:17;;;;;;;;;;;25.50;46.20;;;;;;3054267;19;4991;-78
2023/07/19 00:50:17;;;;;;;;;;;25.50;46.30;;;;;;3054607;19;4562;-78
2023/07/19 00:51:18;;;;;;;;;;;25.50;46.30;;;;;;3054501;19;5137;-79
2023/07/19 00:52:19;;;;;;;;;;;25.50;46.20;;;;;;3054242;19;4722;-82
2023/07/19 00:53:19;;;;;;;;;;;25.50;46.30;;;;;;3054216;19;5107;-81
2023/07/19 00:54:20;;;;;;;;;;;25.50;46.30;;;;;;3053235;19;4499;-79
2023/07/19 00:55:21;;;;;;;;;;;25.50;46.30;;;;;;3054838;19;5106;-79
2023/07/19 00:56:21;;;;;;;;;;;25.50;46.30;;;;;;3053187;19;4691;-79
2023/07/19 00:57:22;;;;;;;;;;;25.50;46.10;;;;;;3052724;19;4730;-80
2023/07/19 00:58:26;;;;;;;;;;;25.50;46.30;;;;;;3052784;19;5076;-80
2023/07/19 00:59:26;;;;;;;;;;;25.50;46.30;;;;;;3052026;19;4510;-83
2023/07/19 01:00:27;;;;;;;;;;;25.50;46.30;;;;;;3034502;19;4527;-78
2023/07/19 01:01:29;;;;;;;;;;;25.40;46.30;;;;;;3052816;19;4783;-78
2023/07/19 01:02:29;;;;;;;;;;;25.40;46.30;;;;;;3051667;19;4625;-30
2023/07/19 01:03:30;;;;;;;;;;;25.50;46.30;;;;;;3053575;19;4642;-28
2023/07/19 01:04:31;;;;;;;;;;;25.50;46.30;;;;;;3053020;19;4795;-28
2023/07/19 01:05:31;;;;;;;;;;;25.40;46.20;;;;;;3053169;19;5277;-29
2023/07/19 01:06:32;;;;;;;;;;;25.50;46.50;;;;;;3052399;19;4812;-27
2023/07/19 01:07:33;;;;;;;;;;;25.50;46.30;;;;;;3051940;19;4795;-28
2023/07/19 01:08:33;;;;;;;;;;;25.50;46.30;;;;;;3051322;19;4823;-32
2023/07/19 01:09:34;;;;;;;;;;;25.40;46.20;;;;;;3052155;19;4861;-33
2023/07/19 01:10:35;;;;;;;;;;;25.50;46.20;;;;;;3051715;19;4554;-29
2023/07/19 01:11:35;;;;;;;;;;;25.40;46.30;;;;;;3050751;19;4854;-27
2023/07/19 01:12:36;;;;;;;;;;;25.40;46.40;;;;;;3052424;19;4894;-30
2023/07/19 01:13:37;;;;;;;;;;;25.40;46.90;;;;;;3051706;19;4776;-29
2023/07/19 01:14:37;;;;;;;;;;;25.40;46.40;;;;;;3053245;19;4786;-30
2023/07/19 01:15:40;;;;;;;;;;;25.50;46.40;;;;;;3051369;19;4656;-29
2023/07/19 01:16:40;;;;;;;;;;;25.40;46.30;;;;;;3052200;19;4817;-30
2023/07/19 01:17:41;;;;;;;;;;;25.40;46.30;;;;;;3051460;19;4786;-29
2023/07/19 01:18:41;;;;;;;;;;;25.40;46.40;;;;;;3052568;19;4647;-28
2023/07/19 01:19:44;;;;;;;;;;;25.40;46.40;;;;;;3052302;19;4697;-29
2023/07/19 01:20:45;;;;;;;;;;;25.40;46.40;;;;;;3052331;19;4666;-30
2023/07/19 01:21:45;;;;;;;;;;;25.40;46.20;;;;;;3052417;19;4679;-30
2023/07/19 01:22:46;;;;;;;;;;;25.30;46.40;;;;;;3052045;19;4757;-30
2023/07/19 01:23:47;;;;;;;;;;;25.30;46.30;;;;;;3050793;19;5085;-27
2023/07/19 01:24:47;;;;;;;;;;;25.40;46.40;;;;;;3052382;19;4825;-31
2023/07/19 01:25:48;;;;;;;;;;;25.30;46.20;;;;;;3051896;19;4792;-27
2023/07/19 01:26:48;;;;;;;;;;;25.30;46.40;;;;;;3053598;19;4836;-28
2023/07/19 01:27:49;;;;;;;;;;;25.40;46.40;;;;;;3052426;19;4750;-28
2023/07/19 01:28:50;;;;;;;;;;;25.30;46.30;;;;;;3051876;19;4755;-30
2023/07/19 01:33:18;;;;;;;;;;;25.30;46.30;;;;;;3036077;19;4829;-22
2023/07/19 01:34:19;;;;;;;;;;;25.40;45.90;;;;;;3052363;19;4746;-22
2023/07/19 01:35:19;;;;;;;;;;;25.30;46.20;;;;;;3051425;19;4900;-21
2023/07/19 01:36:20;;;;;;;;;;;25.30;46.20;;;;;;3051089;19;4830;-24
2023/07/19 01:37:21;;;;;;;;;;;25.30;46.30;;;;;;3054731;19;4665;-21
